sensor_id;sensor_type;location;lat;lon;timestamp;P1;durP1;ratioP1;P2;durP2;ratioP2
78985;SDS011;68384;55.750;48.746;2024-02-14T00:00:16;5.28;;;3.50;;
78985;SDS011;68384;55.750;48.746;2024-02-14T00:01:21;8.18;;;3.17;;
78985;SDS011;68384;55.750;48.746;2024-02-14T00:02:24;6.40;;;3.33;;
78985;SDS011;68384;55.750;48.746;2024-02-14T00:03:27;9.18;;;3.53;;
78985;SDS011;68384;55.750;48.746;2024-02-14T00:04:29;6.47;;;2.88;;
78985;SDS011;68384;55.750;48.746;2024-02-14T00:05:32;9.52;;;4.10;;
78985;SDS011;68384;55.750;48.746;2024-02-14T00:06:35;9.13;;;3.88;;
78985;SDS011;68384;55.750;48.746;2024-02-14T00:07:38;5.75;;;3.13;;
78985;SDS011;68384;55.750;48.746;2024-02-14T00:08:41;8.07;;;3.63;;
78985;SDS011;68384;55.750;48.746;2024-02-14T00:09:44;5.35;;;2.90;;
78985;SDS011;68384;55.750;48.746;2024-02-14T00:10:46;8.05;;;3.45;;
78985;SDS011;68384;55.750;48.746;2024-02-14T00:11:48;7.75;;;3.80;;
78985;SDS011;68384;55.750;48.746;2024-02-14T00:12:50;9.25;;;4.53;;
78985;SDS011;68384;55.750;48.746;2024-02-14T00:13:53;6.38;;;3.58;;
78985;SDS011;68384;55.750;48.746;2024-02-14T00:14:58;8.30;;;4.45;;
78985;SDS011;68384;55.750;48.746;2024-02-14T00:16:03;10.07;;;3.75;;
78985;SDS011;68384;55.750;48.746;2024-02-14T00:17:06;8.10;;;3.58;;
78985;SDS011;68384;55.750;48.746;2024-02-14T00:18:08;8.00;;;4.07;;
78985;SDS011;68384;55.750;48.746;2024-02-14T00:19:11;6.40;;;3.20;;
78985;SDS011;68384;55.750;48.746;2024-02-14T00:20:14;8.60;;;4.00;;
78985;SDS011;68384;55.750;48.746;2024-02-14T00:21:32;8.50;;;4.15;;
78985;SDS011;68384;55.750;48.746;2024-02-14T00:22:35;5.82;;;3.20;;
78985;SDS011;68384;55.750;48.746;2024-02-14T00:23:38;6.40;;;2.85;;
78985;SDS011;68384;55.750;48.746;2024-02-14T00:24:40;8.23;;;3.03;;
78985;SDS011;68384;55.750;48.746;2024-02-14T00:25:43;7.25;;;3.63;;
78985;SDS011;68384;55.750;48.746;2024-02-14T00:26:45;8.80;;;4.07;;
78985;SDS011;68384;55.750;48.746;2024-02-14T00:27:48;7.88;;;3.83;;
78985;SDS011;68384;55.750;48.746;2024-02-14T00:28:51;5.78;;;2.75;;
78985;SDS011;68384;55.750;48.746;2024-02-14T00:29:53;15.07;;;4.82;;
78985;SDS011;68384;55.750;48.746;2024-02-14T00:30:56;10.18;;;4.13;;
78985;SDS011;68384;55.750;48.746;2024-02-14T00:32:17;7.63;;;3.67;;
78985;SDS011;68384;55.750;48.746;2024-02-14T00:33:28;5.20;;;3.08;;
78985;SDS011;68384;55.750;48.746;2024-02-14T00:34:30;5.55;;;3.70;;
78985;SDS011;68384;55.750;48.746;2024-02-14T00:35:33;6.35;;;3.65;;
78985;SDS011;68384;55.750;48.746;2024-02-14T00:36:35;8.27;;;4.07;;
78985;SDS011;68384;55.750;48.746;2024-02-14T00:37:37;4.38;;;2.88;;
78985;SDS011;68384;55.750;48.746;2024-02-14T00:38:39;6.85;;;3.38;;
78985;SDS011;68384;55.750;48.746;2024-02-14T00:39:42;6.72;;;3.15;;
78985;SDS011;68384;55.750;48.746;2024-02-14T00:40:44;7.00;;;3.75;;
78985;SDS011;68384;55.750;48.746;2024-02-14T00:41:46;5.70;;;2.50;;
78985;SDS011;68384;55.750;48.746;2024-02-14T00:42:49;6.97;;;3.92;;
78985;SDS011;68384;55.750;48.746;2024-02-14T00:43:51;3.85;;;2.00;;
78985;SDS011;68384;55.750;48.746;2024-02-14T00:44:53;11.35;;;4.55;;
78985;SDS011;68384;55.750;48.746;2024-02-14T00:45:55;4.63;;;2.65;;
78985;SDS011;68384;55.750;48.746;2024-02-14T00:46:58;11.25;;;3.38;;
78985;SDS011;68384;55.750;48.746;2024-02-14T00:48:04;6.13;;;3.08;;
78985;SDS011;68384;55.750;48.746;2024-02-14T00:49:07;6.20;;;3.40;;
78985;SDS011;68384;55.750;48.746;2024-02-14T00:50:10;7.75;;;3.22;;
78985;SDS011;68384;55.750;48.746;2024-02-14T00:51:12;9.68;;;3.08;;
78985;SDS011;68384;55.750;48.746;2024-02-14T00:52:14;8.18;;;3.90;;
78985;SDS011;68384;55.750;48.746;2024-02-14T00:53:18;7.50;;;3.40;;
78985;SDS011;68384;55.750;48.746;2024-02-14T00:54:20;8.75;;;4.13;;
78985;SDS011;68384;55.750;48.746;2024-02-14T00:55:23;6.10;;;2.80;;
78985;SDS011;68384;55.750;48.746;2024-02-14T00:56:25;8.68;;;4.75;;
78985;SDS011;68384;55.750;48.746;2024-02-14T00:57:27;9.57;;;4.00;;
78985;SDS011;68384;55.750;48.746;2024-02-14T00:58:30;9.38;;;4.57;;
78985;SDS011;68384;55.750;48.746;2024-02-14T00:59:33;4.88;;;2.92;;
78985;SDS011;68384;55.750;48.746;2024-02-14T01:00:35;9.00;;;3.67;;
78985;SDS011;68384;55.750;48.746;2024-02-14T01:01:38;8.60;;;4.50;;
78985;SDS011;68384;55.750;48.746;2024-02-14T01:02:40;6.93;;;3.60;;
78985;SDS011;68384;55.750;48.746;2024-02-14T01:03:43;6.35;;;3.38;;
78985;SDS011;68384;55.750;48.746;2024-02-14T01:04:45;8.52;;;3.78;;
78985;SDS011;68384;55.750;48.746;2024-02-14T01:05:47;10.02;;;4.40;;
78985;SDS011;68384;55.750;48.746;2024-02-14T01:06:50;11.25;;;4.32;;
78985;SDS011;68384;55.750;48.746;2024-02-14T01:07:53;8.18;;;3.50;;
78985;SDS011;68384;55.750;48.746;2024-02-14T01:08:56;8.18;;;3.40;;
78985;SDS011;68384;55.750;48.746;2024-02-14T01:09:58;6.32;;;3.72;;
78985;SDS011;68384;55.750;48.746;2024-02-14T01:11:00;8.15;;;3.58;;
78985;SDS011;68384;55.750;48.746;2024-02-14T01:12:03;9.23;;;3.80;;
78985;SDS011;68384;55.750;48.746;2024-02-14T01:13:06;7.32;;;3.88;;
78985;SDS011;68384;55.750;48.746;2024-02-14T01:14:08;7.07;;;2.90;;
78985;SDS011;68384;55.750;48.746;2024-02-14T01:15:11;8.27;;;4.10;;
78985;SDS011;68384;55.750;48.746;2024-02-14T01:16:13;8.60;;;4.22;;
78985;SDS011;68384;55.750;48.746;2024-02-14T01:17:16;8.70;;;3.78;;
78985;SDS011;68384;55.750;48.746;2024-02-14T01:18:18;8.73;;;3.58;;
78985;SDS011;68384;55.750;48.746;2024-02-14T01:19:20;8.00;;;3.35;;
78985;SDS011;68384;55.750;48.746;2024-02-14T01:20:26;6.72;;;3.75;;
78985;SDS011;68384;55.750;48.746;2024-02-14T01:21:28;6.18;;;3.30;;
78985;SDS011;68384;55.750;48.746;2024-02-14T01:22:30;8.38;;;3.90;;
78985;SDS011;68384;55.750;48.746;2024-02-14T01:23:51;9.52;;;4.55;;
78985;SDS011;68384;55.750;48.746;2024-02-14T01:24:54;12.88;;;3.83;;
78985;SDS011;68384;55.750;48.746;2024-02-14T01:25:56;11.40;;;4.65;;
78985;SDS011;68384;55.750;48.746;2024-02-14T01:26:58;11.85;;;5.05;;
78985;SDS011;68384;55.750;48.746;2024-02-14T01:28:01;9.07;;;4.45;;
78985;SDS011;68384;55.750;48.746;2024-02-14T01:29:03;8.02;;;3.72;;
78985;SDS011;68384;55.750;48.746;2024-02-14T01:30:07;7.10;;;3.83;;
78985;SDS011;68384;55.750;48.746;2024-02-14T01:31:11;8.35;;;3.90;;
78985;SDS011;68384;55.750;48.746;2024-02-14T01:32:14;7.85;;;4.07;;
78985;SDS011;68384;55.750;48.746;2024-02-14T01:33:16;14.07;;;4.47;;
78985;SDS011;68384;55.750;48.746;2024-02-14T01:34:18;7.18;;;4.20;;
78985;SDS011;68384;55.750;48.746;2024-02-14T01:35:21;9.63;;;4.10;;
78985;SDS011;68384;55.750;48.746;2024-02-14T01:36:23;7.82;;;4.15;;
78985;SDS011;68384;55.750;48.746;2024-02-14T01:37:25;7.95;;;3.85;;
78985;SDS011;68384;55.750;48.746;2024-02-14T01:38:28;12.55;;;3.88;;
78985;SDS011;68384;55.750;48.746;2024-02-14T01:39:30;10.32;;;3.95;;
78985;SDS011;68384;55.750;48.746;2024-02-14T01:40:32;12.57;;;5.57;;
78985;SDS011;68384;55.750;48.746;2024-02-14T01:41:38;7.18;;;3.92;;
78985;SDS011;68384;55.750;48.746;2024-02-14T01:42:40;6.35;;;3.38;;
78985;SDS011;68384;55.750;48.746;2024-02-14T01:43:42;9.27;;;3.58;;
78985;SDS011;68384;55.750;48.746;2024-02-14T01:44:46;8.55;;;4.28;;
78985;SDS011;68384;55.750;48.746;2024-02-14T01:45:48;9.20;;;4.13;;
78985;SDS011;68384;55.750;48.746;2024-02-14T01:47:00;6.32;;;3.28;;
78985;SDS011;68384;55.750;48.746;2024-02-14T01:48:02;6.68;;;4.25;;
78985;SDS011;68384;55.750;48.746;2024-02-14T01:49:09;11.50;;;4.10;;
78985;SDS011;68384;55.750;48.746;2024-02-14T01:50:14;8.90;;;3.78;;
78985;SDS011;68384;55.750;48.746;2024-02-14T01:51:16;6.82;;;2.70;;
78985;SDS011;68384;55.750;48.746;2024-02-14T01:52:21;8.15;;;3.75;;
78985;SDS011;68384;55.750;48.746;2024-02-14T01:53:23;7.13;;;3.88;;
78985;SDS011;68384;55.750;48.746;2024-02-14T01:54:27;7.20;;;3.45;;
78985;SDS011;68384;55.750;48.746;2024-02-14T01:55:29;9.75;;;4.65;;
78985;SDS011;68384;55.750;48.746;2024-02-14T01:56:32;11.80;;;4.60;;
78985;SDS011;68384;55.750;48.746;2024-02-14T01:57:35;11.48;;;4.05;;
78985;SDS011;68384;55.750;48.746;2024-02-14T01:58:39;9.38;;;4.57;;
78985;SDS011;68384;55.750;48.746;2024-02-14T01:59:41;10.60;;;3.92;;
78985;SDS011;68384;55.750;48.746;2024-02-14T02:00:43;8.98;;;4.15;;
78985;SDS011;68384;55.750;48.746;2024-02-14T02:01:48;10.55;;;3.88;;
78985;SDS011;68384;55.750;48.746;2024-02-14T02:02:50;9.10;;;4.35;;
78985;SDS011;68384;55.750;48.746;2024-02-14T02:03:55;8.30;;;4.20;;
78985;SDS011;68384;55.750;48.746;2024-02-14T02:04:57;6.95;;;4.65;;
78985;SDS011;68384;55.750;48.746;2024-02-14T02:05:59;7.93;;;4.55;;
78985;SDS011;68384;55.750;48.746;2024-02-14T02:07:02;8.88;;;4.43;;
78985;SDS011;68384;55.750;48.746;2024-02-14T02:08:07;7.40;;;4.15;;
78985;SDS011;68384;55.750;48.746;2024-02-14T02:09:10;10.52;;;4.38;;
78985;SDS011;68384;55.750;48.746;2024-02-14T02:10:13;7.55;;;4.38;;
78985;SDS011;68384;55.750;48.746;2024-02-14T02:11:22;8.43;;;3.88;;
78985;SDS011;68384;55.750;48.746;2024-02-14T02:12:44;6.82;;;4.00;;
78985;SDS011;68384;55.750;48.746;2024-02-14T02:14:06;8.68;;;3.70;;
78985;SDS011;68384;55.750;48.746;2024-02-14T02:15:29;8.75;;;4.43;;
78985;SDS011;68384;55.750;48.746;2024-02-14T02:16:51;8.52;;;3.05;;
78985;SDS011;68384;55.750;48.746;2024-02-14T02:18:13;9.05;;;4.00;;
78985;SDS011;68384;55.750;48.746;2024-02-14T02:19:37;12.95;;;4.05;;
78985;SDS011;68384;55.750;48.746;2024-02-14T02:20:59;9.38;;;3.50;;
78985;SDS011;68384;55.750;48.746;2024-02-14T02:22:02;9.23;;;4.63;;
78985;SDS011;68384;55.750;48.746;2024-02-14T02:23:11;7.60;;;4.50;;
78985;SDS011;68384;55.750;48.746;2024-02-14T02:24:19;9.93;;;4.82;;
78985;SDS011;68384;55.750;48.746;2024-02-14T02:25:21;10.07;;;4.53;;
78985;SDS011;68384;55.750;48.746;2024-02-14T02:26:41;6.80;;;3.58;;
78985;SDS011;68384;55.750;48.746;2024-02-14T02:28:03;7.43;;;3.38;;
78985;SDS011;68384;55.750;48.746;2024-02-14T02:29:10;12.32;;;5.25;;
78985;SDS011;68384;55.750;48.746;2024-02-14T02:30:12;10.88;;;4.07;;
78985;SDS011;68384;55.750;48.746;2024-02-14T02:31:16;10.57;;;4.68;;
78985;SDS011;68384;55.750;48.746;2024-02-14T02:32:19;8.63;;;4.25;;
78985;SDS011;68384;55.750;48.746;2024-02-14T02:33:22;10.57;;;4.53;;
78985;SDS011;68384;55.750;48.746;2024-02-14T02:34:24;8.07;;;4.07;;
78985;SDS011;68384;55.750;48.746;2024-02-14T02:35:28;11.02;;;4.85;;
78985;SDS011;68384;55.750;48.746;2024-02-14T02:36:49;8.98;;;4.10;;
78985;SDS011;68384;55.750;48.746;2024-02-14T02:38:11;6.13;;;3.65;;
78985;SDS011;68384;55.750;48.746;2024-02-14T02:39:34;10.13;;;3.92;;
78985;SDS011;68384;55.750;48.746;2024-02-14T02:40:57;9.82;;;4.30;;
78985;SDS011;68384;55.750;48.746;2024-02-14T02:42:19;10.32;;;4.32;;
78985;SDS011;68384;55.750;48.746;2024-02-14T02:43:41;6.07;;;3.72;;
78985;SDS011;68384;55.750;48.746;2024-02-14T02:45:22;9.13;;;4.68;;
78985;SDS011;68384;55.750;48.746;2024-02-14T02:46:44;9.73;;;4.53;;
78985;SDS011;68384;55.750;48.746;2024-02-14T02:48:07;9.02;;;4.20;;
78985;SDS011;68384;55.750;48.746;2024-02-14T02:49:30;6.43;;;3.30;;
78985;SDS011;68384;55.750;48.746;2024-02-14T02:50:43;5.47;;;3.15;;
78985;SDS011;68384;55.750;48.746;2024-02-14T02:52:04;8.98;;;4.60;;
78985;SDS011;68384;55.750;48.746;2024-02-14T02:53:20;16.60;;;4.43;;
78985;SDS011;68384;55.750;48.746;2024-02-14T02:54:42;9.38;;;4.15;;
78985;SDS011;68384;55.750;48.746;2024-02-14T02:56:06;12.98;;;4.50;;
78985;SDS011;68384;55.750;48.746;2024-02-14T02:57:09;7.10;;;3.78;;
78985;SDS011;68384;55.750;48.746;2024-02-14T02:58:14;11.20;;;4.75;;
78985;SDS011;68384;55.750;48.746;2024-02-14T02:59:16;10.30;;;4.90;;
78985;SDS011;68384;55.750;48.746;2024-02-14T03:00:18;13.20;;;5.57;;
78985;SDS011;68384;55.750;48.746;2024-02-14T03:01:38;16.38;;;5.20;;
78985;SDS011;68384;55.750;48.746;2024-02-14T03:03:02;11.38;;;6.22;;
78985;SDS011;68384;55.750;48.746;2024-02-14T03:04:20;9.27;;;4.65;;
78985;SDS011;68384;55.750;48.746;2024-02-14T03:05:51;9.88;;;5.20;;
78985;SDS011;68384;55.750;48.746;2024-02-14T03:07:10;5.57;;;3.15;;
78985;SDS011;68384;55.750;48.746;2024-02-14T03:08:33;7.32;;;3.97;;
78985;SDS011;68384;55.750;48.746;2024-02-14T03:09:56;9.77;;;5.32;;
78985;SDS011;68384;55.750;48.746;2024-02-14T03:11:18;12.43;;;5.05;;
78985;SDS011;68384;55.750;48.746;2024-02-14T03:12:40;9.18;;;5.22;;
78985;SDS011;68384;55.750;48.746;2024-02-14T03:14:02;10.98;;;4.93;;
78985;SDS011;68384;55.750;48.746;2024-02-14T03:15:24;7.55;;;3.05;;
78985;SDS011;68384;55.750;48.746;2024-02-14T03:16:28;3.40;;;1.95;;
78985;SDS011;68384;55.750;48.746;2024-02-14T03:17:31;7.28;;;3.47;;
78985;SDS011;68384;55.750;48.746;2024-02-14T03:18:34;10.32;;;5.00;;
78985;SDS011;68384;55.750;48.746;2024-02-14T03:19:36;11.38;;;5.65;;
78985;SDS011;68384;55.750;48.746;2024-02-14T03:20:41;13.13;;;5.70;;
78985;SDS011;68384;55.750;48.746;2024-02-14T03:21:43;12.23;;;6.30;;
78985;SDS011;68384;55.750;48.746;2024-02-14T03:22:48;11.55;;;5.85;;
78985;SDS011;68384;55.750;48.746;2024-02-14T03:23:50;15.70;;;6.50;;
78985;SDS011;68384;55.750;48.746;2024-02-14T03:24:56;13.13;;;6.65;;
78985;SDS011;68384;55.750;48.746;2024-02-14T03:25:59;8.65;;;5.00;;
78985;SDS011;68384;55.750;48.746;2024-02-14T03:27:02;11.32;;;5.55;;
78985;SDS011;68384;55.750;48.746;2024-02-14T03:28:06;11.35;;;5.25;;
78985;SDS011;68384;55.750;48.746;2024-02-14T03:29:11;10.00;;;5.68;;
78985;SDS011;68384;55.750;48.746;2024-02-14T03:30:13;12.52;;;6.13;;
78985;SDS011;68384;55.750;48.746;2024-02-14T03:31:18;8.88;;;4.68;;
78985;SDS011;68384;55.750;48.746;2024-02-14T03:32:21;14.20;;;6.15;;
78985;SDS011;68384;55.750;48.746;2024-02-14T03:34:27;11.50;;;5.15;;
78985;SDS011;68384;55.750;48.746;2024-02-14T03:35:32;11.73;;;5.30;;
78985;SDS011;68384;55.750;48.746;2024-02-14T03:36:36;10.20;;;5.30;;
78985;SDS011;68384;55.750;48.746;2024-02-14T03:37:40;12.38;;;5.50;;
78985;SDS011;68384;55.750;48.746;2024-02-14T03:38:43;11.85;;;5.78;;
78985;SDS011;68384;55.750;48.746;2024-02-14T03:39:45;9.63;;;4.68;;
78985;SDS011;68384;55.750;48.746;2024-02-14T03:40:48;10.95;;;5.43;;
78985;SDS011;68384;55.750;48.746;2024-02-14T03:41:50;13.00;;;5.70;;
78985;SDS011;68384;55.750;48.746;2024-02-14T03:42:52;11.88;;;5.05;;
78985;SDS011;68384;55.750;48.746;2024-02-14T03:43:55;11.13;;;5.78;;
78985;SDS011;68384;55.750;48.746;2024-02-14T03:45:00;11.48;;;6.03;;
78985;SDS011;68384;55.750;48.746;2024-02-14T03:46:08;12.82;;;5.38;;
78985;SDS011;68384;55.750;48.746;2024-02-14T03:47:10;12.32;;;6.07;;
78985;SDS011;68384;55.750;48.746;2024-02-14T03:48:12;15.43;;;6.22;;
78985;SDS011;68384;55.750;48.746;2024-02-14T03:49:15;12.93;;;5.75;;
78985;SDS011;68384;55.750;48.746;2024-02-14T03:50:18;12.07;;;5.95;;
78985;SDS011;68384;55.750;48.746;2024-02-14T03:51:24;15.18;;;6.40;;
78985;SDS011;68384;55.750;48.746;2024-02-14T03:52:26;12.07;;;7.20;;
78985;SDS011;68384;55.750;48.746;2024-02-14T03:53:28;12.73;;;6.50;;
78985;SDS011;68384;55.750;48.746;2024-02-14T03:54:30;11.27;;;5.13;;
78985;SDS011;68384;55.750;48.746;2024-02-14T03:55:33;13.15;;;6.30;;
78985;SDS011;68384;55.750;48.746;2024-02-14T03:56:35;9.23;;;4.60;;
78985;SDS011;68384;55.750;48.746;2024-02-14T03:57:39;12.40;;;6.28;;
78985;SDS011;68384;55.750;48.746;2024-02-14T03:58:42;14.55;;;6.55;;
78985;SDS011;68384;55.750;48.746;2024-02-14T03:59:44;15.00;;;6.85;;
78985;SDS011;68384;55.750;48.746;2024-02-14T04:00:47;11.43;;;5.65;;
78985;SDS011;68384;55.750;48.746;2024-02-14T04:01:50;12.20;;;5.18;;
78985;SDS011;68384;55.750;48.746;2024-02-14T04:02:55;11.85;;;5.22;;
78985;SDS011;68384;55.750;48.746;2024-02-14T04:04:03;9.27;;;4.40;;
78985;SDS011;68384;55.750;48.746;2024-02-14T04:05:06;12.57;;;5.05;;
78985;SDS011;68384;55.750;48.746;2024-02-14T04:06:09;13.90;;;5.88;;
78985;SDS011;68384;55.750;48.746;2024-02-14T04:07:12;10.43;;;5.00;;
78985;SDS011;68384;55.750;48.746;2024-02-14T04:08:15;12.68;;;6.00;;
78985;SDS011;68384;55.750;48.746;2024-02-14T04:09:17;10.55;;;5.20;;
78985;SDS011;68384;55.750;48.746;2024-02-14T04:10:20;15.95;;;7.13;;
78985;SDS011;68384;55.750;48.746;2024-02-14T04:11:22;11.82;;;5.20;;
78985;SDS011;68384;55.750;48.746;2024-02-14T04:12:25;16.27;;;6.93;;
78985;SDS011;68384;55.750;48.746;2024-02-14T04:13:27;12.50;;;5.90;;
78985;SDS011;68384;55.750;48.746;2024-02-14T04:14:29;12.25;;;6.07;;
78985;SDS011;68384;55.750;48.746;2024-02-14T04:15:32;13.57;;;5.80;;
78985;SDS011;68384;55.750;48.746;2024-02-14T04:16:40;12.18;;;5.60;;
78985;SDS011;68384;55.750;48.746;2024-02-14T04:17:43;12.77;;;4.10;;
78985;SDS011;68384;55.750;48.746;2024-02-14T04:18:45;13.35;;;6.30;;
78985;SDS011;68384;55.750;48.746;2024-02-14T04:19:48;14.63;;;5.95;;
78985;SDS011;68384;55.750;48.746;2024-02-14T04:20:50;12.32;;;5.47;;
78985;SDS011;68384;55.750;48.746;2024-02-14T04:21:53;13.00;;;6.03;;
78985;SDS011;68384;55.750;48.746;2024-02-14T04:22:55;8.23;;;4.88;;
78985;SDS011;68384;55.750;48.746;2024-02-14T04:23:57;14.07;;;7.20;;
78985;SDS011;68384;55.750;48.746;2024-02-14T04:24:59;13.90;;;5.55;;
78985;SDS011;68384;55.750;48.746;2024-02-14T04:26:06;11.55;;;5.70;;
78985;SDS011;68384;55.750;48.746;2024-02-14T04:27:08;12.45;;;5.22;;
78985;SDS011;68384;55.750;48.746;2024-02-14T04:28:11;7.75;;;4.32;;
78985;SDS011;68384;55.750;48.746;2024-02-14T04:29:13;11.80;;;5.95;;
78985;SDS011;68384;55.750;48.746;2024-02-14T04:30:15;12.73;;;5.82;;
78985;SDS011;68384;55.750;48.746;2024-02-14T04:31:37;13.65;;;5.78;;
78985;SDS011;68384;55.750;48.746;2024-02-14T04:32:45;14.00;;;6.18;;
78985;SDS011;68384;55.750;48.746;2024-02-14T04:33:47;14.27;;;5.25;;
78985;SDS011;68384;55.750;48.746;2024-02-14T04:34:54;11.43;;;4.82;;
78985;SDS011;68384;55.750;48.746;2024-02-14T04:35:56;14.48;;;5.63;;
78985;SDS011;68384;55.750;48.746;2024-02-14T04:36:59;10.98;;;4.65;;
78985;SDS011;68384;55.750;48.746;2024-02-14T04:38:01;8.40;;;3.80;;
78985;SDS011;68384;55.750;48.746;2024-02-14T04:39:04;15.15;;;6.00;;
78985;SDS011;68384;55.750;48.746;2024-02-14T04:40:07;11.45;;;6.40;;
78985;SDS011;68384;55.750;48.746;2024-02-14T04:41:10;10.10;;;4.65;;
78985;SDS011;68384;55.750;48.746;2024-02-14T04:42:12;13.98;;;5.50;;
78985;SDS011;68384;55.750;48.746;2024-02-14T04:43:14;17.05;;;6.22;;
78985;SDS011;68384;55.750;48.746;2024-02-14T04:44:16;11.23;;;4.80;;
78985;SDS011;68384;55.750;48.746;2024-02-14T04:45:19;10.13;;;5.28;;
78985;SDS011;68384;55.750;48.746;2024-02-14T04:46:30;13.20;;;5.45;;
78985;SDS011;68384;55.750;48.746;2024-02-14T04:47:32;10.07;;;5.00;;
78985;SDS011;68384;55.750;48.746;2024-02-14T04:48:35;10.27;;;5.90;;
78985;SDS011;68384;55.750;48.746;2024-02-14T04:49:39;12.02;;;5.50;;
78985;SDS011;68384;55.750;48.746;2024-02-14T04:50:42;12.18;;;4.82;;
78985;SDS011;68384;55.750;48.746;2024-02-14T04:51:45;15.68;;;6.45;;
78985;SDS011;68384;55.750;48.746;2024-02-14T04:52:47;9.50;;;4.72;;
78985;SDS011;68384;55.750;48.746;2024-02-14T04:53:49;15.45;;;6.70;;
78985;SDS011;68384;55.750;48.746;2024-02-14T04:54:52;11.30;;;5.78;;
78985;SDS011;68384;55.750;48.746;2024-02-14T04:55:54;16.40;;;6.28;;
78985;SDS011;68384;55.750;48.746;2024-02-14T04:56:56;13.63;;;6.18;;
78985;SDS011;68384;55.750;48.746;2024-02-14T04:58:03;12.15;;;5.40;;
78985;SDS011;68384;55.750;48.746;2024-02-14T04:59:06;16.05;;;7.05;;
78985;SDS011;68384;55.750;48.746;2024-02-14T05:00:10;15.10;;;6.90;;
78985;SDS011;68384;55.750;48.746;2024-02-14T05:01:13;14.85;;;7.40;;
78985;SDS011;68384;55.750;48.746;2024-02-14T05:02:16;15.98;;;7.78;;
78985;SDS011;68384;55.750;48.746;2024-02-14T05:03:19;13.90;;;6.70;;
78985;SDS011;68384;55.750;48.746;2024-02-14T05:04:21;16.02;;;6.80;;
78985;SDS011;68384;55.750;48.746;2024-02-14T05:05:24;14.88;;;7.20;;
78985;SDS011;68384;55.750;48.746;2024-02-14T05:06:35;17.52;;;6.15;;
78985;SDS011;68384;55.750;48.746;2024-02-14T05:07:38;14.45;;;6.63;;
78985;SDS011;68384;55.750;48.746;2024-02-14T05:08:40;12.40;;;7.32;;
78985;SDS011;68384;55.750;48.746;2024-02-14T05:09:42;10.68;;;5.97;;
78985;SDS011;68384;55.750;48.746;2024-02-14T05:10:46;17.10;;;6.85;;
78985;SDS011;68384;55.750;48.746;2024-02-14T05:11:48;13.18;;;6.03;;
78985;SDS011;68384;55.750;48.746;2024-02-14T05:12:50;11.32;;;5.82;;
78985;SDS011;68384;55.750;48.746;2024-02-14T05:13:52;13.55;;;6.93;;
78985;SDS011;68384;55.750;48.746;2024-02-14T05:14:55;13.25;;;6.43;;
78985;SDS011;68384;55.750;48.746;2024-02-14T05:15:57;12.35;;;6.25;;
78985;SDS011;68384;55.750;48.746;2024-02-14T05:17:00;14.65;;;6.25;;
78985;SDS011;68384;55.750;48.746;2024-02-14T05:18:03;15.68;;;6.35;;
78985;SDS011;68384;55.750;48.746;2024-02-14T05:19:08;15.13;;;6.80;;
78985;SDS011;68384;55.750;48.746;2024-02-14T05:20:11;15.02;;;6.45;;
78985;SDS011;68384;55.750;48.746;2024-02-14T05:21:14;14.10;;;6.10;;
78985;SDS011;68384;55.750;48.746;2024-02-14T05:22:17;11.85;;;6.13;;
78985;SDS011;68384;55.750;48.746;2024-02-14T05:23:20;12.80;;;6.40;;
78985;SDS011;68384;55.750;48.746;2024-02-14T05:24:22;15.02;;;6.53;;
78985;SDS011;68384;55.750;48.746;2024-02-14T05:25:24;15.95;;;6.60;;
78985;SDS011;68384;55.750;48.746;2024-02-14T05:26:32;14.10;;;5.75;;
78985;SDS011;68384;55.750;48.746;2024-02-14T05:27:35;13.02;;;6.18;;
78985;SDS011;68384;55.750;48.746;2024-02-14T05:28:38;15.15;;;6.45;;
78985;SDS011;68384;55.750;48.746;2024-02-14T05:29:40;14.93;;;6.18;;
78985;SDS011;68384;55.750;48.746;2024-02-14T05:30:43;11.68;;;5.80;;
78985;SDS011;68384;55.750;48.746;2024-02-14T05:32:06;11.27;;;6.32;;
78985;SDS011;68384;55.750;48.746;2024-02-14T05:33:11;11.27;;;5.53;;
78985;SDS011;68384;55.750;48.746;2024-02-14T05:34:14;12.07;;;4.80;;
78985;SDS011;68384;55.750;48.746;2024-02-14T05:35:16;11.88;;;6.43;;
78985;SDS011;68384;55.750;48.746;2024-02-14T05:36:19;10.77;;;6.47;;
78985;SDS011;68384;55.750;48.746;2024-02-14T05:37:21;11.60;;;5.53;;
78985;SDS011;68384;55.750;48.746;2024-02-14T05:38:23;12.32;;;6.28;;
78985;SDS011;68384;55.750;48.746;2024-02-14T05:39:25;10.43;;;4.82;;
78985;SDS011;68384;55.750;48.746;2024-02-14T05:40:28;15.98;;;6.95;;
78985;SDS011;68384;55.750;48.746;2024-02-14T05:41:30;13.95;;;5.75;;
78985;SDS011;68384;55.750;48.746;2024-02-14T05:42:34;15.82;;;6.13;;
78985;SDS011;68384;55.750;48.746;2024-02-14T05:43:36;14.60;;;7.50;;
78985;SDS011;68384;55.750;48.746;2024-02-14T05:44:40;9.05;;;5.20;;
78985;SDS011;68384;55.750;48.746;2024-02-14T05:45:42;13.43;;;6.00;;
78985;SDS011;68384;55.750;48.746;2024-02-14T05:46:45;15.93;;;6.50;;
78985;SDS011;68384;55.750;48.746;2024-02-14T05:47:48;12.80;;;6.53;;
78985;SDS011;68384;55.750;48.746;2024-02-14T05:48:50;14.05;;;7.10;;
78985;SDS011;68384;55.750;48.746;2024-02-14T05:49:54;17.85;;;6.97;;
78985;SDS011;68384;55.750;48.746;2024-02-14T05:50:56;9.60;;;5.60;;
78985;SDS011;68384;55.750;48.746;2024-02-14T05:51:58;11.43;;;6.13;;
78985;SDS011;68384;55.750;48.746;2024-02-14T05:53:02;14.30;;;6.95;;
78985;SDS011;68384;55.750;48.746;2024-02-14T05:54:05;16.23;;;6.47;;
78985;SDS011;68384;55.750;48.746;2024-02-14T05:55:08;13.23;;;6.53;;
78985;SDS011;68384;55.750;48.746;2024-02-14T05:56:24;11.00;;;4.78;;
78985;SDS011;68384;55.750;48.746;2024-02-14T05:57:27;13.05;;;6.00;;
78985;SDS011;68384;55.750;48.746;2024-02-14T05:58:29;14.25;;;6.55;;
78985;SDS011;68384;55.750;48.746;2024-02-14T05:59:31;17.02;;;6.93;;
78985;SDS011;68384;55.750;48.746;2024-02-14T06:00:34;12.32;;;6.55;;
78985;SDS011;68384;55.750;48.746;2024-02-14T06:01:38;12.52;;;6.70;;
78985;SDS011;68384;55.750;48.746;2024-02-14T06:02:40;17.70;;;6.47;;
78985;SDS011;68384;55.750;48.746;2024-02-14T06:03:43;12.63;;;6.47;;
78985;SDS011;68384;55.750;48.746;2024-02-14T06:04:45;14.52;;;5.53;;
78985;SDS011;68384;55.750;48.746;2024-02-14T06:05:47;14.27;;;6.75;;
78985;SDS011;68384;55.750;48.746;2024-02-14T06:06:49;17.45;;;6.40;;
78985;SDS011;68384;55.750;48.746;2024-02-14T06:07:51;14.15;;;6.97;;
78985;SDS011;68384;55.750;48.746;2024-02-14T06:08:54;13.32;;;6.68;;
78985;SDS011;68384;55.750;48.746;2024-02-14T06:09:57;15.95;;;5.78;;
78985;SDS011;68384;55.750;48.746;2024-02-14T06:10:59;18.08;;;6.70;;
78985;SDS011;68384;55.750;48.746;2024-02-14T06:12:02;14.38;;;5.82;;
78985;SDS011;68384;55.750;48.746;2024-02-14T06:13:05;13.50;;;6.90;;
78985;SDS011;68384;55.750;48.746;2024-02-14T06:14:08;10.40;;;5.32;;
78985;SDS011;68384;55.750;48.746;2024-02-14T06:15:10;16.30;;;7.60;;
78985;SDS011;68384;55.750;48.746;2024-02-14T06:17:18;13.57;;;5.63;;
78985;SDS011;68384;55.750;48.746;2024-02-14T06:18:23;12.80;;;5.47;;
78985;SDS011;68384;55.750;48.746;2024-02-14T06:19:27;17.25;;;6.70;;
78985;SDS011;68384;55.750;48.746;2024-02-14T06:20:29;13.98;;;7.32;;
78985;SDS011;68384;55.750;48.746;2024-02-14T06:21:31;15.85;;;6.68;;
78985;SDS011;68384;55.750;48.746;2024-02-14T06:22:34;14.40;;;6.72;;
78985;SDS011;68384;55.750;48.746;2024-02-14T06:23:48;19.20;;;8.00;;
78985;SDS011;68384;55.750;48.746;2024-02-14T06:24:50;14.77;;;7.03;;
78985;SDS011;68384;55.750;48.746;2024-02-14T06:25:52;14.50;;;6.97;;